Latest Weather Observations for Yarrawonga

IDN60801

Issued at 1:06 pm EDT Monday 26 January 2015 (issued every 30 minutes, with the page automatically refreshed every 10 minutes)

About weather observations | Map of weather stations | Latest weather observations for NSW | Other Formats
Station Details ID: 081124 Name: YARRAWONGA Lat: -36.03 Lon: 146.03 Height: 128.9 m
Data from the previous 72 hours. | See also: Recent months at Yarrawonga
Date/Time
EDT
Temp
°C
App
Temp
°C
Dew
Point
Rel
Hum
%
Delta-T
°C
Wind Press
QNH
hPa
Press
MSL
hPa
Rain
since 9 am
mm
Dir
 
Spd
km/h
Gust
km/h
Spd
kts
Gust
kts
26/01:00pm 23.4 19.0 2.8 26 9.9 WSW 15 22 8 12 1013.2 1012.6 0.0
26/12:30pm 22.6 18.6 2.7 27 9.5 WSW 13 24 7 13 1013.3 1012.7 0.0
26/12:00pm 22.1 18.2 3.3 29 9.1 SSW 13 19 7 10 1013.7 1013.1 0.0
26/11:30am 21.8 18.2 3.0 29 9.0 SW 11 26 6 14 1013.9 1013.3 0.0
26/11:00am 20.5 17.0 3.3 32 8.2 SW 11 20 6 11 1014.2 1013.6 0.0
26/10:30am 19.6 16.1 3.7 35 7.6 SSW 11 19 6 10 1014.3 1013.7 0.0
26/10:00am 19.1 16.0 5.6 41 6.7 SSW 11 17 6 9 1014.3 1013.7 0.0
26/09:30am 17.4 13.5 5.4 45 5.8 SSW 15 24 8 13 1014.4 1013.8 0.0
26/09:00am 17.0 12.8 5.6 47 5.5 SSW 17 22 9 12 1014.2 1013.6 0.0
26/08:30am 15.5 12.2 6.5 55 4.4 SSW 13 22 7 12 1014.0 1013.4 0.0
26/08:00am 13.8 10.3 7.1 64 3.3 SW 15 19 8 10 1013.7 1013.1 0.0
26/07:30am 11.9 8.7 6.8 71 2.4 SW 13 17 7 9 1013.6 1013.0 0.0
26/07:00am 10.4 7.1 6.5 77 1.8 WSW 13 15 7 8 1013.3 1012.7 0.0
26/06:30am 9.3 6.3 6.2 81 1.4 WSW 11 13 6 7 1012.8 1012.2 0.0
26/06:00am 9.3 6.3 6.0 80 1.5 WSW 11 13 6 7 1012.6 1012.0 0.0
26/05:30am 9.7 6.6 5.7 76 1.8 WSW 11 13 6 7 1012.4 1011.8 0.0
26/05:00am 10.2 7.1 5.6 73 2.1 SW 11 13 6 7 1012.0 1011.4 0.0
26/04:30am 10.3 7.6 5.5 72 2.2 SW 9 11 5 6 1011.7 1011.1 0.0
26/04:00am 11.3 8.2 5.4 67 2.7 SW 11 13 6 7 1011.7 1011.1 0.0
26/03:30am 11.6 8.5 5.5 66 2.8 SW 11 13 6 7 1011.5 1010.9 0.0
26/03:00am 12.0 9.9 5.6 65 3.0 SW 6 6 3 3 1011.6 1011.0 0.0
26/02:30am 12.7 10.0 5.6 62 3.3 SW 9 13 5 7 1011.4 1010.8 0.0
26/02:00am 13.2 10.1 5.6 60 3.6 SW 11 15 6 8 1011.2 1010.6 0.0
26/01:30am 13.9 10.4 5.5 57 4.0 SW 13 19 7 10 1011.2 1010.6 0.0
26/01:00am 14.9 10.6 5.1 52 4.6 SW 17 22 9 12 1011.2 1010.6 0.0
26/12:30am 15.2 11.3 5.4 52 4.7 SSW 15 19 8 10 1011.2 1010.6 0.0
26/12:00am 16.0 12.1 5.3 49 5.1 SSW 15 20 8 11 1011.0 1010.4 0.0
 
Date/Time
EDT
Temp
°C
App
Temp
°C
Dew
Point
Rel
Hum
%
Delta-T
°C
Wind Press
QNH
hPa
Press
MSL
hPa
Rain
since 9 am
mm
Dir
 
Spd
km/h
Gust
km/h
Spd
kts
Gust
kts
25/11:30pm 16.5 12.3 5.5 48 5.3 S 17 24 9 13 1011.0 1010.4 0.0
25/11:00pm 17.1 13.2 5.4 46 5.7 S 15 20 8 11 1010.9 1010.3 0.0
25/10:30pm 18.2 13.3 4.0 39 6.7 S 19 28 10 15 1010.7 1010.1 0.0
25/10:00pm 19.0 14.6 2.8 34 7.6 SSW 15 20 8 11 1010.3 1009.7 0.0
25/09:30pm 19.3 14.8 2.2 32 7.9 SW 15 20 8 11 1009.9 1009.3 0.0
25/09:00pm 20.1 15.6 2.0 30 8.4 SW 15 20 8 11 1009.5 1008.9 0.0
25/08:30pm 21.6 16.7 1.8 27 9.2 WSW 17 24 9 13 1008.9 1008.3 0.0
25/08:00pm 23.1 17.8 2.0 25 10.0 WSW 19 28 10 15 1008.6 1008.0 0.0
25/07:30pm 23.6 16.5 1.3 23 10.5 WSW 28 37 15 20 1008.2 1007.5 0.0
25/07:00pm 24.4 18.0 0.7 21 11.1 WSW 24 37 13 20 1007.9 1007.2 0.0
25/06:30pm 24.5 17.6 0.1 20 11.3 WSW 26 46 14 25 1007.5 1006.8 0.0
25/06:00pm 25.4 18.4 2.2 22 11.2 WSW 28 39 15 21 1007.3 1006.6 0.0
25/05:30pm 25.6 18.2 1.7 21 11.5 SW 30 43 16 23 1007.3 1006.6 0.0
25/05:00pm 25.9 18.5 1.9 21 11.6 WSW 30 43 16 23 1007.0 1006.3 0.0
25/04:30pm 26.0 18.6 3.9 24 11.1 WSW 32 46 17 25 1007.0 1006.3 0.0
25/04:00pm 25.8 18.6 3.1 23 11.2 WSW 30 43 16 23 1007.1 1006.4 0.0
25/03:47pm 26.4 19.8 4.2 24 11.2 WSW 28 48 15 26 1007.1 1006.4 0.0
25/03:30pm 25.9 18.4 4.4 25 10.9 W 33 44 18 24 1007.3 1006.6 0.0
25/03:00pm 25.6 20.2 6.3 29 10.1 WSW 24 44 13 24 1007.0 1006.3 0.0
25/02:30pm 25.6 20.5 5.8 28 10.2 W 22 35 12 19 1007.1 1006.4 0.0
25/02:00pm 25.6 20.3 6.8 30 9.9 SW 24 41 13 22 1007.1 1006.4 0.0
25/01:30pm 24.9 19.4 6.1 30 9.7 WSW 24 39 13 21 1007.2 1006.5 0.0
25/01:00pm 24.6 19.2 6.4 31 9.5 W 24 50 13 27 1007.0 1006.3 0.0
25/12:30pm 24.4 20.1 8.0 35 8.8 WSW 20 33 11 18 1007.0 1006.3 0.0
25/12:00pm 23.7 18.3 8.2 37 8.3 WSW 26 39 14 21 1007.2 1006.5 0.0
25/11:30am 23.6 19.4 9.6 41 7.7 WSW 22 39 12 21 1007.2 1006.5 0.0
25/11:00am 22.8 18.6 9.9 44 7.1 W 22 35 12 19 1007.1 1006.4 0.0
25/10:30am 22.6 18.6 10.4 46 6.7 WSW 22 33 12 18 1007.0 1006.3 0.0
25/10:00am 21.8 18.1 10.3 48 6.3 WSW 20 30 11 16 1006.9 1006.2 0.0
25/09:30am 21.0 16.9 10.2 50 5.9 W 22 32 12 17 1007.0 1006.3 0.0
25/09:00am 20.5 16.4 10.0 51 5.7 WSW 22 30 12 16 1006.9 1006.2 0.0
25/08:30am 20.3 16.8 10.1 52 5.5 WSW 19 30 10 16 1006.5 1005.9 0.0
25/08:00am 19.0 16.1 9.8 55 4.9 W 15 20 8 11 1006.3 1005.7 0.0
25/07:30am 17.6 15.3 9.0 57 4.5 W 11 17 6 9 1005.9 1005.3 0.0
25/07:00am 16.4 14.9 9.1 62 3.8 W 7 9 4 5 1005.5 1004.9 0.0
25/06:30am 16.3 13.9 8.8 61 3.9 W 11 15 6 8 1005.1 1004.5 0.0
25/06:00am 17.4 13.8 8.5 56 4.6 W 17 22 9 12 1004.9 1004.3 0.0
25/05:30am 17.5 15.2 8.9 57 4.5 W 11 17 6 9 1004.4 1003.8 0.0
25/05:00am 18.3 15.5 8.6 53 5.1 W 13 17 7 9 1003.8 1003.2 0.0
25/04:30am 19.2 15.6 8.2 49 5.7 WSW 17 24 9 13 1004.0 1003.4 0.0
25/04:00am 19.8 15.9 8.5 48 5.9 W 19 26 10 14 1003.9 1003.3 0.0
25/03:30am 20.8 17.2 8.4 45 6.5 WSW 17 22 9 12 1003.9 1003.3 0.0
25/03:00am 21.2 17.5 8.1 43 6.9 WSW 17 24 9 13 1003.7 1003.1 0.0
25/02:30am 21.3 18.0 7.9 42 7.0 W 15 19 8 10 1003.5 1002.9 0.0
25/02:00am 20.7 18.4 7.3 42 6.9 W 9 13 5 7 1003.4 1002.8 0.0
25/01:30am 21.6 20.2 7.1 39 7.5 WNW 4 6 2 3 1003.2 1002.6 0.0
25/01:00am 21.9 20.0 6.6 37 7.9 WNW 6 7 3 4 1003.4 1002.8 0.0
25/12:30am 22.4 20.8 6.2 35 8.3 NW 4 6 2 3 1003.6 1003.0 0.0
25/12:00am 24.7 22.4 5.5 29 9.9 WNW 7 13 4 7 1003.5 1002.9 0.0
 
Date/Time
EDT
Temp
°C
App
Temp
°C
Dew
Point
Rel
Hum
%
Delta-T
°C
Wind Press
QNH
hPa
Press
MSL
hPa
Rain
since 9 am
mm
Dir
 
Spd
km/h
Gust
km/h
Spd
kts
Gust
kts
24/11:30pm 24.6 22.3 5.9 30 9.6 NW 7 11 4 6 1003.5 1002.9 0.0
24/11:00pm 23.8 22.1 7.4 35 8.7 NW 6 7 3 4 1003.4 1002.8 0.0
24/10:30pm 24.4 22.5 9.2 38 8.3 WSW 9 11 5 6 1003.3 1002.7 0.0
24/10:00pm 26.9 24.5 12.5 40 8.4 W 17 24 9 13 1002.9 1002.3 0.0
24/09:30pm 26.5 27.2 15.5 50 6.7 N 6 9 3 5 1002.3 1001.7 0.0
24/09:00pm 27.5 27.3 14.8 45 7.7 N 9 13 5 7 1001.8 1001.2 0.0
24/08:30pm 28.4 28.7 15.0 44 8.2 NNE 7 11 4 6 1001.7 1001.1 0.0
24/08:00pm 29.8 28.4 13.5 36 9.8 N 13 17 7 9 1001.5 1000.8 0.0
24/07:30pm 30.7 30.2 13.9 36 10.2 N 9 15 5 8 1001.3 1000.6 0.0
24/07:00pm 31.2 29.8 13.5 34 10.7 NNW 13 19 7 10 1001.2 1000.5 0.0
24/06:30pm 30.9 29.4 13.2 34 10.6 NNW 13 20 7 11 1001.5 1000.8 0.0
24/06:00pm 30.9 29.4 13.2 34 10.7 NNW 13 22 7 12 1001.6 1000.9 0.0
24/05:30pm 31.9 31.2 13.2 32 11.3 NW 9 17 5 9 1002.0 1001.4 0.0
24/05:00pm 30.5 29.3 12.9 34 10.5 W 11 19 6 10 1002.2 1001.6 0.0
24/04:30pm 30.5 28.9 12.9 34 10.5 W 13 20 7 11 1002.6 1002.0 0.0
24/04:00pm 30.4 29.8 12.3 33 10.7 NNW 7 9 4 5 1003.0 1002.4 0.0
24/03:30pm 30.4 29.8 12.3 33 10.7 NW 7 15 4 8 1003.1 1002.5 0.0
24/03:00pm 30.7 29.0 11.1 30 11.4 NW 11 17 6 9 1003.7 1003.1 0.0
24/02:30pm 30.0 29.3 11.5 32 10.8 NW 6 11 3 6 1004.0 1003.4 0.0
24/02:00pm 29.7 29.2 12.6 35 10.1 NNW 7 15 4 8 1004.4 1003.8 0.0
24/01:30pm 29.7 29.1 12.2 34 10.3 NW 7 15 4 8 1004.9 1004.3 0.0
24/01:00pm 29.3 29.1 13.5 38 9.5 W 7 11 4 6 1005.0 1004.4 0.0
24/12:30pm 28.6 27.4 14.1 41 8.7 W 13 20 7 11 1005.3 1004.7 0.0
24/12:00pm 28.6 26.9 12.5 37 9.5 W 13 17 7 9 1005.4 1004.8 0.0
24/11:30am 29.6 28.4 12.9 35 9.9 W 11 17 6 9 1005.6 1005.0 0.0
24/11:00am 29.7 29.5 13.5 37 9.7 WNW 7 13 4 7 1005.3 1004.7 0.0
24/10:30am 28.8 29.9 14.6 42 8.6 WNW 2 4 1 2 1005.3 1004.7 0.0
24/10:00am 27.2 29.5 16.8 53 6.5 CALM 0 4 0 2 1005.4 1004.8 0.0
24/09:30am 24.6 25.9 17.1 63 4.7 W 6 9 3 5 1005.5 1004.9 0.0
24/09:00am 23.1 24.9 16.4 66 4.1 W 2 7 1 4 1005.6 1005.0 0.0
24/08:30am 22.9 23.8 16.2 66 4.1 W 6 7 3 4 1005.5 1004.9 0.0
24/08:00am 20.5 21.1 15.3 72 3.1 SW 6 7 3 4 1005.1 1004.5 0.0
24/07:30am 19.4 19.4 15.1 76 2.5 WSW 9 13 5 7 1005.1 1004.5 0.0
24/07:00am 18.5 19.0 15.0 80 2.1 WSW 6 7 3 4 1005.1 1004.5 0.0
24/06:30am 17.5 18.0 15.0 85 1.5 SSW 6 6 3 3 1004.5 1003.9 0.0
24/06:00am 17.5 17.7 14.8 84 1.6 WSW 7 11 4 6 1004.6 1004.0 0.0
24/05:30am 18.1 18.3 14.8 81 1.9 WSW 7 9 4 5 1004.2 1003.6 0.0
24/05:00am 18.2 18.2 15.1 82 1.8 WSW 9 11 5 6 1003.9 1003.3 0.0
24/04:30am 18.6 18.7 15.5 82 1.8 WSW 9 13 5 7 1003.9 1003.3 0.0
24/04:00am 19.1 20.9 15.4 79 2.2 CALM 0 2 0 1 1003.7 1003.1 0.0
24/03:30am 19.9 21.0 15.5 76 2.6 W 4 9 2 5 1003.9 1003.3 0.0
24/03:00am 20.2 21.8 16.0 77 2.5 W 2 6 1 3 1004.1 1003.5 0.0
24/02:30am 20.8 21.7 16.0 74 2.9 W 6 7 3 4 1004.1 1003.5 0.0
24/02:00am 21.6 22.1 16.6 73 3.1 WSW 9 13 5 7 1004.3 1003.7 0.0
24/01:30am 23.0 24.7 18.1 74 3.1 N 6 9 3 5 1004.5 1003.9 0.0
24/01:00am 23.8 25.6 18.2 71 3.5 N 6 9 3 5 1004.6 1004.0 0.0
24/12:30am 24.6 25.5 18.5 69 3.9 NNE 11 13 6 7 1004.9 1004.3 0.0
24/12:00am 24.5 26.5 18.7 70 3.7 N 6 9 3 5 1004.9 1004.3 0.0
 
Date/Time
EDT
Temp
°C
App
Temp
°C
Dew
Point
Rel
Hum
%
Delta-T
°C
Wind Press
QNH
hPa
Press
MSL
hPa
Rain
since 9 am
mm
Dir
 
Spd
km/h
Gust
km/h
Spd
kts
Gust
kts
23/11:30pm 25.1 26.8 18.5 67 4.2 NE 7 13 4 7 1004.8 1004.2 0.0
23/11:00pm 25.1 27.5 18.8 68 4.0 NE 4 7 2 4 1004.6 1004.0 0.0
23/10:30pm 25.7 26.4 18.9 66 4.4 ENE 13 20 7 11 1004.4 1003.8 0.0
23/10:00pm 27.2 26.0 17.4 55 6.2 ENE 20 24 11 13 1004.3 1003.7 0.0
23/09:30pm 29.3 29.2 16.1 44 8.2 E 11 20 6 11 1003.9 1003.3 0.0
23/09:00pm 31.1 29.6 12.0 31 11.3 SW 11 17 6 9 1003.4 1002.8 0.0
23/08:30pm 32.5 29.2 11.6 28 12.3 WSW 20 28 11 15 1003.0 1002.4 0.0
23/08:00pm 33.0 29.5 12.1 28 12.5 SW 22 32 12 17 1002.8 1002.2 0.0
23/07:30pm 34.2 29.1 12.0 26 13.3 SW 30 39 16 21 1002.2 1001.6 0.0
23/07:00pm 35.1 29.7 12.1 25 13.9 SW 32 43 17 23 1001.7 1001.1 0.0
23/06:30pm 36.4 34.2 13.2 25 14.2 W 17 24 9 13 1001.3 1000.6 0.0
23/06:00pm 37.2 34.6 13.9 25 14.5 W 20 30 11 16 1001.2 1000.5 0.0
23/05:30pm 36.1 33.6 14.1 26 13.6 W 20 32 11 17 1001.4 1000.7 0.0
23/05:00pm 36.7 32.5 14.6 26 13.9 WSW 30 39 16 21 1001.6 1000.9 0.0
23/04:30pm 36.4 34.0 14.4 27 13.7 WSW 20 33 11 18 1001.6 1000.9 0.0
23/04:00pm 36.4 33.6 13.2 25 14.3 WNW 20 33 11 18 1002.0 1001.4 0.0
23/03:30pm 38.2 35.5 13.4 23 15.3 W 20 33 11 18 1002.3 1001.7 0.0
23/03:00pm 37.6 35.7 14.2 25 14.7 NW 17 28 9 15 1002.6 1002.0 0.0
23/02:30pm 37.4 35.7 14.7 26 14.3 NW 17 39 9 21 1003.0 1002.4 0.0
23/02:00pm 36.6 34.9 14.6 27 13.8 NNW 17 30 9 16 1003.3 1002.7 0.0
23/01:30pm 35.6 34.7 14.8 28 13.0 NW 13 24 7 13 1004.0 1003.4 0.0

Other Formats:

Comma delimited format used in spreadsheet applications
http://www.bom.gov.au/fwo/IDN60801/IDN60801.94862.axf

JavaScript Object Notation format (JSON) in row-major order
http://www.bom.gov.au/fwo/IDN60801/IDN60801.94862.json